createdAt,value
2022-10-05T00:00:50.744Z,10.84
2022-10-05T00:03:20.969Z,10.80
2022-10-05T00:05:50.985Z,10.73
2022-10-05T00:08:22.799Z,10.69
2022-10-05T00:10:52.551Z,10.68
2022-10-05T00:13:23.422Z,10.66
2022-10-05T00:15:52.100Z,10.65
2022-10-05T00:18:22.345Z,10.61
2022-10-05T00:20:52.353Z,10.59
2022-10-05T00:23:23.188Z,10.55
2022-10-05T00:25:52.276Z,10.51
2022-10-05T00:28:26.847Z,10.51
2022-10-05T00:30:57.516Z,10.51
2022-10-05T00:33:27.316Z,10.51
2022-10-05T00:35:57.203Z,10.51
2022-10-05T00:38:25.789Z,10.50
2022-10-05T00:41:04.182Z,10.48
2022-10-05T00:43:50.691Z,10.48
2022-10-05T00:46:23.838Z,10.47
2022-10-05T00:49:03.343Z,10.46
2022-10-05T00:51:37.178Z,10.45
2022-10-05T00:54:19.517Z,10.46
2022-10-05T00:57:00.821Z,10.45
2022-10-05T00:59:42.597Z,10.43
2022-10-05T01:02:15.813Z,10.43
2022-10-05T01:04:52.079Z,10.45
2022-10-05T01:07:33.622Z,10.40
2022-10-05T01:10:11.752Z,10.39
2022-10-05T01:12:50.251Z,10.40
2022-10-05T01:15:26.293Z,10.38
2022-10-05T01:18:01.383Z,10.39
2022-10-05T01:20:41.895Z,10.39
2022-10-05T01:23:41.969Z,10.39
2022-10-05T01:26:35.566Z,10.42
2022-10-05T01:29:11.569Z,10.43
2022-10-05T01:31:46.255Z,10.42
2022-10-05T01:34:24.057Z,10.41
2022-10-05T01:37:01.608Z,10.41
2022-10-05T01:39:39.854Z,10.38
2022-10-05T01:42:18.626Z,10.38
2022-10-05T01:44:58.826Z,10.40
2022-10-05T01:47:35.020Z,10.39
2022-10-05T01:50:09.548Z,10.36
2022-10-05T01:52:46.700Z,10.35
2022-10-05T01:55:23.263Z,10.33
2022-10-05T01:58:13.767Z,10.35
2022-10-05T02:00:49.530Z,10.30
2022-10-05T02:03:22.263Z,10.31
2022-10-05T02:05:57.027Z,10.26
2022-10-05T02:08:32.531Z,10.23
2022-10-05T02:11:04.231Z,10.21
2022-10-05T02:13:37.807Z,10.18
2022-10-05T02:16:12.387Z,10.17
2022-10-05T02:18:47.971Z,10.15
2022-10-05T02:21:16.680Z,10.13
2022-10-05T02:23:49.612Z,10.11
2022-10-05T02:26:18.742Z,10.10
2022-10-05T02:28:53.422Z,10.07
2022-10-05T02:31:30.238Z,10.08
2022-10-05T02:34:23.820Z,10.06
2022-10-05T02:37:03.429Z,10.06
2022-10-05T02:39:38.283Z,10.03
2022-10-05T02:42:13.740Z,10.02
2022-10-05T02:44:54.851Z,10.00
2022-10-05T02:47:33.560Z,9.97
2022-10-05T02:50:07.082Z,9.96
2022-10-05T02:52:44.627Z,9.92
2022-10-05T02:55:19.221Z,9.91
2022-10-05T02:57:54.820Z,9.88
2022-10-05T03:00:25.805Z,9.86
2022-10-05T03:03:03.335Z,9.85
2022-10-05T03:05:38.719Z,9.86
2022-10-05T03:08:13.192Z,9.81
2022-10-05T03:10:57.227Z,9.82
2022-10-05T03:13:33.132Z,9.81
2022-10-05T03:16:16.691Z,9.81
2022-10-05T03:19:04.374Z,9.79
2022-10-05T03:21:48.553Z,9.82
2022-10-05T03:24:31.125Z,9.81
2022-10-05T03:27:08.320Z,9.81
2022-10-05T03:29:43.640Z,9.82
2022-10-05T03:32:25.527Z,9.81
2022-10-05T03:35:02.956Z,9.83
2022-10-05T03:37:38.660Z,9.82
2022-10-05T03:40:17.156Z,9.81
2022-10-05T03:42:55.773Z,9.83
2022-10-05T03:45:29.741Z,9.82
2022-10-05T03:48:06.701Z,9.83
2022-10-05T03:50:45.668Z,9.83
2022-10-05T03:53:20.261Z,9.83
2022-10-05T03:55:53.131Z,9.85
2022-10-05T03:58:26.468Z,9.85
2022-10-05T04:01:00.431Z,9.86
2022-10-05T04:03:34.039Z,9.87
2022-10-05T04:06:11.103Z,9.90
2022-10-05T04:08:47.991Z,9.90
2022-10-05T04:11:22.616Z,9.91
2022-10-05T04:13:57.084Z,9.90
2022-10-05T04:16:29.624Z,9.90
2022-10-05T04:19:04.896Z,9.89
2022-10-05T04:21:39.584Z,9.89
2022-10-05T04:24:15.555Z,9.89
2022-10-05T04:26:51.849Z,9.85
2022-10-05T04:29:32.422Z,9.88
2022-10-05T04:32:14.594Z,9.87
2022-10-05T04:34:57.849Z,9.87
2022-10-05T04:37:37.249Z,9.88
2022-10-05T04:40:18.900Z,9.86
2022-10-05T04:42:55.524Z,9.86
2022-10-05T04:45:33.804Z,9.84
2022-10-05T04:48:34.233Z,9.88
2022-10-05T04:51:15.609Z,9.89
2022-10-05T04:53:55.335Z,9.85
2022-10-05T04:56:33.765Z,9.85
2022-10-05T04:59:26.997Z,9.83
2022-10-05T05:02:06.787Z,9.82
2022-10-05T05:05:00.635Z,9.81
2022-10-05T05:07:42.087Z,9.79
2022-10-05T05:10:51.709Z,9.79
2022-10-05T05:13:44.195Z,9.80
2022-10-05T05:16:21.607Z,9.79
2022-10-05T05:19:07.460Z,9.81
2022-10-05T05:21:44.386Z,9.82
2022-10-05T05:24:20.995Z,9.82
2022-10-05T05:27:03.108Z,9.84
2022-10-05T05:29:43.670Z,9.82
2022-10-05T05:32:22.958Z,9.84
2022-10-05T05:35:10.000Z,9.84
2022-10-05T05:37:48.956Z,9.85
2022-10-05T05:40:20.572Z,9.86
2022-10-05T05:42:58.821Z,9.88
2022-10-05T05:45:40.700Z,9.92
2022-10-05T05:48:22.353Z,9.93
2022-10-05T05:50:59.448Z,9.96
2022-10-05T05:53:34.430Z,9.97
2022-10-05T05:56:10.488Z,9.99
2022-10-05T05:58:48.414Z,10.00
2022-10-05T06:01:33.359Z,10.05
2022-10-05T06:04:10.777Z,10.08
2022-10-05T06:06:44.307Z,10.09
2022-10-05T06:09:19.644Z,10.11
2022-10-05T06:11:52.180Z,10.12
2022-10-05T06:14:30.494Z,10.12
2022-10-05T06:17:04.112Z,10.13
2022-10-05T06:19:35.984Z,10.17
2022-10-05T06:22:08.834Z,10.19
2022-10-05T06:24:41.929Z,10.21
2022-10-05T06:27:25.733Z,10.24
2022-10-05T06:30:13.221Z,10.29
2022-10-05T06:33:01.396Z,10.31
2022-10-05T06:35:44.528Z,10.38
2022-10-05T06:38:36.203Z,10.41
2022-10-05T06:41:16.796Z,10.45
2022-10-05T06:43:56.042Z,10.49
2022-10-05T06:46:31.582Z,10.53
2022-10-05T06:49:15.564Z,10.57
2022-10-05T06:51:52.481Z,10.60
2022-10-05T06:54:36.545Z,10.64
2022-10-05T06:57:14.027Z,10.71
2022-10-05T06:59:51.120Z,10.77
2022-10-05T07:02:28.375Z,10.81
2022-10-05T07:05:26.906Z,10.86
2022-10-05T07:07:59.475Z,10.89
2022-10-05T07:10:34.682Z,10.95
2022-10-05T07:13:14.895Z,11.01
2022-10-05T07:15:50.101Z,11.05
2022-10-05T07:18:49.207Z,11.08
2022-10-05T07:21:29.433Z,11.11
2022-10-05T07:24:05.804Z,11.16
2022-10-05T07:26:41.936Z,11.19
2022-10-05T07:29:35.994Z,11.22
2022-10-05T07:32:16.288Z,11.26
2022-10-05T07:35:00.988Z,11.32
2022-10-05T07:37:51.596Z,11.36
2022-10-05T07:40:26.265Z,11.40
2022-10-05T07:43:06.404Z,11.47
2022-10-05T07:45:41.056Z,11.54
2022-10-05T07:48:18.278Z,11.61
2022-10-05T07:51:00.012Z,11.67
2022-10-05T07:53:35.457Z,11.79
2022-10-05T07:56:13.570Z,11.91
2022-10-05T07:58:47.994Z,11.93
2022-10-05T08:01:23.480Z,11.99
2022-10-05T08:03:57.639Z,12.10
2022-10-05T08:06:40.754Z,12.17
2022-10-05T08:09:21.536Z,12.25
2022-10-05T08:11:57.205Z,12.31
2022-10-05T08:14:33.836Z,12.37
2022-10-05T08:17:10.244Z,12.45
2022-10-05T08:19:47.704Z,12.53
2022-10-05T08:22:25.531Z,12.60
2022-10-05T08:25:00.434Z,12.66
2022-10-05T08:27:36.872Z,12.76
2022-10-05T08:30:10.009Z,12.84
2022-10-05T08:32:44.815Z,12.89
2022-10-05T08:35:27.344Z,12.98
2022-10-05T08:37:58.069Z,13.04
2022-10-05T08:40:58.062Z,13.10
2022-10-05T08:43:55.193Z,13.20
2022-10-05T08:46:51.292Z,13.29
2022-10-05T08:50:01.410Z,13.39
2022-10-05T08:52:31.628Z,13.47
2022-10-05T08:55:23.621Z,13.53
2022-10-05T08:58:04.841Z,13.62
2022-10-05T09:00:46.950Z,13.70
2022-10-05T09:03:28.978Z,13.78
2022-10-05T09:06:22.975Z,13.89
2022-10-05T09:09:32.304Z,14.00
2022-10-05T09:12:33.470Z,14.07
2022-10-05T09:15:26.153Z,14.11
2022-10-05T09:18:31.425Z,14.21
2022-10-05T09:21:04.595Z,14.25
2022-10-05T09:23:40.120Z,14.33
2022-10-05T09:26:29.794Z,14.40
2022-10-05T09:29:15.593Z,14.53
2022-10-05T09:32:14.205Z,14.56
2022-10-05T09:35:06.255Z,14.63
2022-10-05T09:37:58.287Z,14.73
2022-10-05T09:41:05.086Z,14.77
2022-10-05T09:44:01.294Z,14.83
2022-10-05T09:47:02.201Z,14.92
2022-10-05T09:49:57.154Z,15.02
2022-10-05T09:52:51.720Z,15.11
2022-10-05T09:55:51.435Z,15.08
2022-10-05T09:58:49.821Z,15.18
2022-10-05T10:01:37.075Z,15.17
2022-10-05T10:04:40.145Z,15.22
2022-10-05T10:07:39.091Z,15.28
2022-10-05T10:10:40.697Z,15.32
2022-10-05T10:13:40.715Z,15.41
2022-10-05T10:16:20.173Z,15.35
2022-10-05T10:19:21.242Z,15.34
2022-10-05T10:22:20.558Z,15.37
2022-10-05T10:25:21.779Z,15.43
2022-10-05T10:28:07.938Z,15.52
2022-10-05T10:30:56.174Z,15.62
2022-10-05T10:33:46.827Z,15.74
2022-10-05T10:36:23.122Z,15.71
2022-10-05T10:39:07.656Z,15.77
2022-10-05T10:41:54.554Z,15.83
2022-10-05T10:44:52.438Z,15.96
2022-10-05T10:48:00.422Z,15.92
2022-10-05T10:51:05.261Z,15.97
2022-10-05T10:54:04.768Z,16.03
2022-10-05T10:57:08.716Z,16.03
2022-10-05T11:00:15.731Z,16.24
2022-10-05T11:03:29.409Z,16.36
2022-10-05T11:06:22.307Z,16.37
2022-10-05T11:09:09.401Z,16.51
2022-10-05T11:12:20.704Z,16.48
2022-10-05T11:15:07.527Z,16.64
2022-10-05T11:18:09.347Z,16.83
2022-10-05T11:21:13.093Z,17.05
2022-10-05T11:24:10.539Z,17.43
2022-10-05T11:26:55.690Z,17.63
2022-10-05T11:30:02.020Z,17.96
2022-10-05T11:33:11.304Z,17.98
2022-10-05T11:36:04.471Z,18.28
2022-10-05T11:38:55.841Z,18.91
2022-10-05T11:41:49.431Z,19.44
2022-10-05T11:45:06.831Z,19.45
2022-10-05T11:47:41.664Z,19.09
2022-10-05T11:50:21.067Z,19.09
2022-10-05T11:52:58.425Z,19.13
2022-10-05T11:55:32.925Z,19.02
2022-10-05T11:58:07.710Z,18.70
2022-10-05T12:00:43.717Z,18.57
2022-10-05T12:03:34.331Z,18.32
2022-10-05T12:06:23.518Z,18.17
2022-10-05T12:09:04.406Z,18.00
2022-10-05T12:12:04.256Z,18.22
2022-10-05T12:14:42.439Z,18.53
2022-10-05T12:17:21.703Z,19.13
2022-10-05T12:19:55.839Z,19.64
2022-10-05T12:22:27.646Z,20.00
2022-10-05T12:25:12.864Z,20.36
2022-10-05T12:27:46.277Z,20.76
2022-10-05T12:30:18.856Z,21.06
2022-10-05T12:33:02.215Z,21.34
2022-10-05T12:35:47.940Z,21.61
2022-10-05T12:38:27.664Z,21.90
2022-10-05T12:41:05.535Z,22.03
2022-10-05T12:43:48.265Z,22.01
2022-10-05T12:46:29.494Z,22.01
2022-10-05T12:49:24.830Z,22.13
2022-10-05T12:51:58.482Z,22.09
2022-10-05T12:54:38.757Z,22.25
2022-10-05T12:57:16.041Z,22.39
2022-10-05T12:59:51.884Z,22.50
2022-10-05T13:02:30.495Z,22.49
2022-10-05T13:05:04.381Z,22.74
2022-10-05T13:07:50.622Z,22.73
2022-10-05T13:10:30.806Z,22.52
2022-10-05T13:13:24.202Z,22.19
2022-10-05T13:16:00.366Z,21.88
2022-10-05T13:18:41.872Z,21.67
2022-10-05T13:21:15.337Z,21.25
2022-10-05T13:23:57.657Z,20.89
2022-10-05T13:26:33.579Z,20.64
2022-10-05T13:29:14.019Z,20.60
2022-10-05T13:31:47.959Z,20.33
2022-10-05T13:34:22.977Z,20.17
2022-10-05T13:37:04.156Z,20.14
2022-10-05T13:39:46.971Z,20.01
2022-10-05T13:42:19.682Z,19.99
2022-10-05T13:44:52.403Z,20.00
2022-10-05T13:47:31.575Z,19.93
2022-10-05T13:50:07.073Z,19.83
2022-10-05T13:52:46.615Z,19.73
2022-10-05T13:55:22.660Z,19.73
2022-10-05T13:57:57.876Z,19.60
2022-10-05T14:00:28.801Z,19.68
2022-10-05T14:03:00.881Z,19.71
2022-10-05T14:05:31.540Z,19.82
2022-10-05T14:08:17.473Z,19.81
2022-10-05T14:10:48.515Z,19.65
2022-10-05T14:13:24.428Z,19.60
2022-10-05T14:16:04.583Z,19.47
2022-10-05T14:18:37.505Z,19.44
2022-10-05T14:21:19.430Z,19.53
2022-10-05T14:23:48.182Z,19.40
2022-10-05T14:26:31.826Z,19.28
2022-10-05T14:29:02.875Z,19.17
2022-10-05T14:31:35.949Z,19.21
2022-10-05T14:34:31.311Z,19.21
2022-10-05T14:37:03.691Z,19.20
2022-10-05T14:39:36.216Z,19.12
2022-10-05T14:42:16.480Z,19.05
2022-10-05T14:44:46.756Z,19.08
2022-10-05T14:47:23.836Z,18.99
2022-10-05T14:50:15.628Z,18.93
2022-10-05T14:52:51.894Z,18.90
2022-10-05T14:55:39.381Z,18.88
2022-10-05T14:58:33.357Z,18.82
2022-10-05T15:01:13.681Z,18.84
2022-10-05T15:03:52.142Z,18.88
2022-10-05T15:06:29.436Z,18.82
2022-10-05T15:09:17.729Z,18.83
2022-10-05T15:11:53.686Z,18.84
2022-10-05T15:14:27.341Z,18.82
2022-10-05T15:17:00.151Z,18.78
2022-10-05T15:19:39.128Z,18.81
2022-10-05T15:22:24.397Z,18.73
2022-10-05T15:25:02.601Z,18.67
2022-10-05T15:27:42.257Z,18.69
2022-10-05T15:30:14.196Z,18.59
2022-10-05T15:33:04.543Z,18.57
2022-10-05T15:35:55.707Z,18.57
2022-10-05T15:38:26.676Z,18.54
2022-10-05T15:41:08.168Z,18.49
2022-10-05T15:43:48.555Z,18.41
2022-10-05T15:46:23.448Z,18.31
2022-10-05T15:49:08.527Z,18.29
2022-10-05T15:51:51.040Z,18.22
2022-10-05T15:54:43.056Z,18.31
2022-10-05T15:57:26.698Z,18.14
2022-10-05T16:00:02.075Z,18.10
2022-10-05T16:02:38.735Z,18.03
2022-10-05T16:05:49.660Z,18.03
2022-10-05T16:08:54.322Z,18.01
2022-10-05T16:11:32.708Z,17.93
2022-10-05T16:14:14.325Z,17.90
2022-10-05T16:16:58.363Z,17.86
2022-10-05T16:19:33.162Z,17.75
2022-10-05T16:22:14.191Z,17.71
2022-10-05T16:24:56.148Z,17.67
2022-10-05T16:27:40.478Z,17.67
2022-10-05T16:30:13.709Z,17.57
2022-10-05T16:32:50.043Z,17.54
2022-10-05T16:35:30.851Z,17.42
2022-10-05T16:38:08.070Z,17.35
2022-10-05T16:40:45.701Z,17.27
2022-10-05T16:43:26.879Z,17.20
2022-10-05T16:46:10.043Z,17.14
2022-10-05T16:48:49.664Z,17.05
2022-10-05T16:51:26.072Z,16.96
2022-10-05T16:54:03.205Z,16.90
2022-10-05T16:56:39.957Z,16.83
2022-10-05T16:59:30.784Z,16.77
2022-10-05T17:02:07.569Z,16.73
2022-10-05T17:04:46.081Z,16.65
2022-10-05T17:07:30.699Z,16.60
2022-10-05T17:10:27.551Z,16.52
2022-10-05T17:13:05.113Z,16.41
2022-10-05T17:15:42.577Z,16.32
2022-10-05T17:18:24.366Z,16.25
2022-10-05T17:21:02.583Z,16.18
2022-10-05T17:23:50.244Z,16.10
2022-10-05T17:26:35.689Z,16.04
2022-10-05T17:29:16.476Z,15.96
2022-10-05T17:32:11.871Z,15.88
2022-10-05T17:35:18.159Z,15.81
2022-10-05T17:38:07.509Z,15.75
2022-10-05T17:40:39.551Z,15.68
2022-10-05T17:43:25.829Z,15.64
2022-10-05T17:45:58.596Z,15.61
2022-10-05T17:48:42.819Z,15.53
2022-10-05T17:51:57.193Z,15.50
2022-10-05T17:54:46.882Z,15.43
2022-10-05T17:57:22.358Z,15.37
2022-10-05T18:00:00.576Z,15.32
2022-10-05T18:02:44.068Z,15.28
2022-10-05T18:05:25.719Z,15.26
2022-10-05T18:08:28.915Z,15.22
2022-10-05T18:11:13.007Z,15.17
2022-10-05T18:13:46.391Z,15.14
2022-10-05T18:16:35.592Z,15.13
2022-10-05T18:19:16.769Z,15.10
2022-10-05T18:22:03.459Z,15.05
2022-10-05T18:24:53.172Z,15.04
2022-10-05T18:27:43.561Z,15.01
2022-10-05T18:30:22.921Z,15.00
2022-10-05T18:33:27.279Z,14.99
2022-10-05T18:36:12.031Z,14.97
2022-10-05T18:38:56.332Z,14.94
2022-10-05T18:41:40.469Z,14.94
2022-10-05T18:44:25.112Z,14.92
2022-10-05T18:47:02.082Z,14.89
2022-10-05T18:49:45.044Z,14.88
2022-10-05T18:52:23.495Z,14.87
2022-10-05T18:55:03.868Z,14.87
2022-10-05T18:58:00.818Z,14.86
2022-10-05T19:00:43.785Z,14.86
2022-10-05T19:03:20.549Z,14.83
2022-10-05T19:06:00.220Z,14.83
2022-10-05T19:08:39.988Z,14.83
2022-10-05T19:11:19.107Z,14.81
2022-10-05T19:13:55.828Z,14.79
2022-10-05T19:16:40.143Z,14.77
2022-10-05T19:19:30.748Z,14.76
2022-10-05T19:22:06.007Z,14.76
2022-10-05T19:24:47.715Z,14.75
2022-10-05T19:27:27.221Z,14.75
2022-10-05T19:30:13.677Z,14.72
2022-10-05T19:32:56.961Z,14.73
2022-10-05T19:35:34.207Z,14.71
2022-10-05T19:38:22.159Z,14.67
2022-10-05T19:40:59.851Z,14.63
2022-10-05T19:43:41.836Z,14.61
2022-10-05T19:46:19.918Z,14.60
2022-10-05T19:48:51.368Z,14.59
2022-10-05T19:51:29.552Z,14.57
2022-10-05T19:54:01.341Z,14.57
2022-10-05T19:56:34.824Z,14.57
2022-10-05T19:59:13.232Z,14.58
2022-10-05T20:01:50.775Z,14.55
2022-10-05T20:04:34.395Z,14.56
2022-10-05T20:07:03.369Z,14.53
2022-10-05T20:09:51.289Z,14.52
2022-10-05T20:12:23.066Z,14.52
2022-10-05T20:15:26.630Z,14.55
2022-10-05T20:18:12.689Z,14.53
2022-10-05T20:20:45.780Z,14.56
2022-10-05T20:23:24.924Z,14.57
2022-10-05T20:26:11.391Z,14.63
2022-10-05T20:28:41.619Z,14.66
2022-10-05T20:31:10.229Z,14.61
2022-10-05T20:33:39.014Z,14.63
2022-10-05T20:36:08.667Z,14.64
2022-10-05T20:38:40.886Z,14.64
2022-10-05T20:41:10.458Z,14.69
2022-10-05T20:43:39.449Z,14.72
2022-10-05T20:46:09.430Z,14.74
2022-10-05T20:48:37.935Z,14.78
2022-10-05T20:51:06.685Z,14.78
2022-10-05T20:53:35.269Z,14.81
2022-10-05T20:56:04.726Z,14.78
2022-10-05T20:58:33.209Z,14.83
2022-10-05T21:01:19.084Z,14.84
2022-10-05T21:03:49.665Z,14.82
2022-10-05T21:06:19.102Z,14.83
2022-10-05T21:08:47.905Z,14.82
2022-10-05T21:11:16.447Z,14.83
2022-10-05T21:13:45.826Z,14.77
2022-10-05T21:16:16.383Z,14.79
2022-10-05T21:18:46.945Z,14.75
2022-10-05T21:21:17.708Z,14.76
2022-10-05T21:23:46.832Z,14.78
2022-10-05T21:26:16.475Z,14.84
2022-10-05T21:28:45.028Z,14.83
2022-10-05T21:31:13.559Z,14.79
2022-10-05T21:33:42.186Z,14.82
2022-10-05T21:36:10.775Z,14.91
2022-10-05T21:38:40.627Z,14.95
2022-10-05T21:41:09.549Z,14.96
2022-10-05T21:43:38.042Z,14.99
2022-10-05T21:46:07.463Z,15.00
2022-10-05T21:48:38.954Z,15.06
2022-10-05T21:51:10.359Z,15.09
2022-10-05T21:53:44.052Z,15.04
2022-10-05T21:56:15.460Z,15.04
2022-10-05T21:58:45.819Z,15.04
2022-10-05T22:01:16.878Z,15.01
2022-10-05T22:03:48.928Z,15.08
2022-10-05T22:06:17.632Z,15.08
2022-10-05T22:08:47.532Z,15.05
2022-10-05T22:11:18.001Z,15.10
2022-10-05T22:13:48.811Z,15.07
2022-10-05T22:16:19.259Z,15.05
2022-10-05T22:18:48.280Z,15.08
2022-10-05T22:21:17.435Z,15.12
2022-10-05T22:23:47.399Z,15.08
2022-10-05T22:26:19.068Z,15.01
2022-10-05T22:28:48.503Z,14.97
2022-10-05T22:31:18.202Z,14.95
2022-10-05T22:33:46.984Z,14.95
2022-10-05T22:36:15.628Z,14.91
2022-10-05T22:38:44.797Z,14.91
2022-10-05T22:41:17.269Z,14.90
2022-10-05T22:43:48.683Z,14.96
2022-10-05T22:46:17.608Z,14.92
2022-10-05T22:48:46.245Z,14.93
2022-10-05T22:51:14.743Z,14.91
2022-10-05T22:53:43.304Z,14.90
2022-10-05T22:56:14.765Z,14.88
2022-10-05T22:58:44.224Z,14.87
2022-10-05T23:01:14.866Z,14.92
2022-10-05T23:03:44.301Z,14.90
2022-10-05T23:06:15.156Z,14.88
2022-10-05T23:08:44.111Z,14.86
2022-10-05T23:11:16.182Z,14.87
2022-10-05T23:13:45.004Z,14.85
2022-10-05T23:16:14.957Z,14.86
2022-10-05T23:18:44.239Z,14.86
2022-10-05T23:21:12.790Z,14.86
2022-10-05T23:23:42.973Z,14.88
2022-10-05T23:26:12.714Z,14.86
2022-10-05T23:28:47.308Z,14.83
2022-10-05T23:31:17.902Z,14.79
2022-10-05T23:33:46.464Z,14.79
2022-10-05T23:36:17.235Z,14.83
2022-10-05T23:38:46.345Z,14.83
2022-10-05T23:41:16.071Z,14.85
2022-10-05T23:43:46.013Z,14.88
2022-10-05T23:46:15.470Z,14.90
2022-10-05T23:48:44.236Z,14.87
2022-10-05T23:51:14.239Z,14.86
2022-10-05T23:53:42.765Z,14.90
2022-10-05T23:56:11.455Z,14.86
2022-10-05T23:58:40.292Z,14.90
